createdAt,value
2017-11-06T00:03:18.840Z,99.90
2017-11-06T00:08:19.817Z,99.90
2017-11-06T00:13:21.515Z,99.90
2017-11-06T00:18:22.503Z,99.90
2017-11-06T00:23:24.252Z,99.90
2017-11-06T00:28:25.225Z,99.90
2017-11-06T00:33:26.195Z,99.90
2017-11-06T00:38:27.153Z,99.90
2017-11-06T00:43:28.970Z,99.90
2017-11-06T00:48:29.946Z,99.90
2017-11-06T00:53:30.962Z,99.90
2017-11-06T00:58:31.925Z,99.90
2017-11-06T01:03:32.902Z,99.90
2017-11-06T01:08:33.895Z,99.90
2017-11-06T01:13:35.017Z,99.90
2017-11-06T01:18:36.097Z,99.90
2017-11-06T01:23:37.098Z,99.90
2017-11-06T01:28:38.825Z,99.90
2017-11-06T01:33:39.901Z,99.90
2017-11-06T01:38:40.997Z,99.90
2017-11-06T01:43:41.994Z,99.90
2017-11-06T01:48:42.986Z,99.90
2017-11-06T01:53:44.118Z,99.90
2017-11-06T01:58:45.307Z,99.90
2017-11-06T02:03:46.354Z,99.90
2017-11-06T02:08:47.413Z,99.90
2017-11-06T02:13:48.414Z,99.90
2017-11-06T02:18:49.401Z,99.90
2017-11-06T02:23:50.410Z,99.90
2017-11-06T02:28:51.422Z,99.90
2017-11-06T02:33:52.417Z,99.90
2017-11-06T02:38:53.457Z,99.90
2017-11-06T02:43:55.319Z,99.90
2017-11-06T02:48:56.342Z,99.90
2017-11-06T02:53:57.434Z,99.90
2017-11-06T02:58:59.170Z,99.90
2017-11-06T03:04:00.266Z,99.90
2017-11-06T03:09:02.165Z,99.90
2017-11-06T03:14:03.286Z,99.90
2017-11-06T03:19:05.259Z,99.90
2017-11-06T03:24:06.338Z,99.90
2017-11-06T03:29:08.551Z,99.90
2017-11-06T03:34:09.668Z,99.90
2017-11-06T03:39:10.690Z,99.90
2017-11-06T03:44:12.482Z,99.90
2017-11-06T03:49:14.214Z,99.90
2017-11-06T03:54:15.198Z,99.90
2017-11-06T03:59:16.206Z,99.90
2017-11-06T04:04:17.186Z,99.90
2017-11-06T04:09:18.170Z,99.90
2017-11-06T04:14:19.150Z,99.90
2017-11-06T04:19:20.178Z,99.90
2017-11-06T04:24:21.893Z,99.90
2017-11-06T04:29:22.898Z,99.90
2017-11-06T04:34:24.002Z,99.90
2017-11-06T04:39:25.072Z,99.90
2017-11-06T04:44:26.177Z,99.90
2017-11-06T04:49:27.165Z,99.90
2017-11-06T04:54:28.135Z,99.90
2017-11-06T04:59:29.137Z,99.90
2017-11-06T05:04:30.864Z,99.90
2017-11-06T05:09:31.877Z,99.90
2017-11-06T05:14:32.894Z,99.90
2017-11-06T05:19:34.021Z,99.90
2017-11-06T05:24:35.062Z,99.90
2017-11-06T05:29:37.004Z,99.90
2017-11-06T05:34:38.126Z,99.90
2017-11-06T05:39:39.144Z,99.90
2017-11-06T05:44:40.141Z,99.90
2017-11-06T05:49:41.179Z,99.90
2017-11-06T05:54:42.173Z,99.90
2017-11-06T05:59:43.198Z,99.90
2017-11-06T06:04:44.226Z,99.90
2017-11-06T06:09:45.317Z,99.90
2017-11-06T06:14:46.330Z,99.90
2017-11-06T06:19:47.382Z,99.90
2017-11-06T06:24:48.378Z,99.90
2017-11-06T06:29:49.345Z,99.90
2017-11-06T06:34:50.418Z,99.90
2017-11-06T06:39:51.397Z,99.90
2017-11-06T06:44:52.363Z,99.90
2017-11-06T06:49:53.350Z,99.90
2017-11-06T06:54:54.375Z,99.90
2017-11-06T06:59:55.386Z,99.90
2017-11-06T07:04:57.086Z,99.90
2017-11-06T07:09:58.792Z,99.90
2017-11-06T07:14:59.823Z,99.90
2017-11-06T07:20:00.848Z,99.90
2017-11-06T07:25:01.918Z,99.90
2017-11-06T07:30:02.882Z,99.90
2017-11-06T07:35:03.862Z,99.90
2017-11-06T07:40:04.941Z,99.90
2017-11-06T07:45:05.974Z,99.90
2017-11-06T07:50:06.994Z,99.90
2017-11-06T07:55:07.980Z,99.90
2017-11-06T08:00:08.962Z,99.90
2017-11-06T08:05:09.988Z,99.90
2017-11-06T08:10:10.956Z,99.90
2017-11-06T08:15:11.925Z,99.90
2017-11-06T08:20:12.893Z,99.20
2017-11-06T08:25:13.865Z,93.40
2017-11-06T08:30:14.829Z,90.50
2017-11-06T08:35:15.802Z,85.20
2017-11-06T08:40:17.510Z,65.60
2017-11-06T08:45:18.469Z,65.30
2017-11-06T08:50:20.185Z,58.00
2017-11-06T08:55:21.161Z,57.20
2017-11-06T09:00:22.878Z,56.30
2017-11-06T09:05:23.856Z,56.30
2017-11-06T09:10:24.828Z,54.40
2017-11-06T09:15:26.525Z,55.20
2017-11-06T09:20:28.233Z,63.50
2017-11-06T09:25:29.193Z,63.50
2017-11-06T09:30:30.895Z,54.80
2017-11-06T09:35:32.608Z,52.30
2017-11-06T09:40:33.577Z,52.30
2017-11-06T09:45:35.318Z,53.80
2017-11-06T09:50:36.437Z,54.40
2017-11-06T09:55:37.495Z,50.20
2017-11-06T10:00:38.588Z,56.90
2017-11-06T10:05:39.613Z,59.30
2017-11-06T10:10:41.392Z,63.70
2017-11-06T10:15:42.393Z,63.60
2017-11-06T10:20:43.417Z,65.80
2017-11-06T10:25:44.421Z,60.10
2017-11-06T10:30:45.457Z,62.50
2017-11-06T10:35:46.568Z,66.50
2017-11-06T10:40:47.593Z,67.80
2017-11-06T10:45:48.654Z,65.80
2017-11-06T10:50:49.719Z,64.30
2017-11-06T10:55:50.802Z,65.50
2017-11-06T11:00:52.014Z,65.00
2017-11-06T11:05:53.145Z,65.00
2017-11-06T11:10:55.153Z,68.10
2017-11-06T11:15:56.225Z,68.20
2017-11-06T11:20:57.986Z,67.00
2017-11-06T11:25:58.966Z,66.90
2017-11-06T11:30:59.937Z,68.10
2017-11-06T11:36:00.910Z,68.60
2017-11-06T11:41:01.898Z,69.90
2017-11-06T11:46:02.877Z,70.10
2017-11-06T11:51:03.853Z,69.60
2017-11-06T11:56:04.913Z,67.80
2017-11-06T12:01:06.706Z,65.60
2017-11-06T12:06:13.877Z,65.60
2017-11-06T12:11:14.959Z,63.70
2017-11-06T12:16:15.925Z,64.90
2017-11-06T12:21:16.910Z,69.00
2017-11-06T12:26:17.889Z,68.00
2017-11-06T12:31:18.959Z,68.20
2017-11-06T12:36:20.693Z,65.00
2017-11-06T12:41:21.669Z,65.10
2017-11-06T12:46:22.637Z,63.20
2017-11-06T12:51:23.613Z,64.30
2017-11-06T12:56:24.629Z,64.80
2017-11-06T13:01:25.628Z,66.40
2017-11-06T13:06:26.707Z,66.40
2017-11-06T13:11:27.838Z,66.50
2017-11-06T13:16:28.821Z,66.10
2017-11-06T13:21:30.561Z,65.60
2017-11-06T13:26:31.541Z,65.50
2017-11-06T13:31:32.669Z,64.00
2017-11-06T13:36:33.648Z,64.10
2017-11-06T13:41:35.453Z,63.70
2017-11-06T13:46:37.303Z,64.90
2017-11-06T13:51:38.317Z,64.90
2017-11-06T13:56:39.373Z,64.30
2017-11-06T14:01:40.481Z,66.60
2017-11-06T14:06:41.513Z,66.90
2017-11-06T14:11:42.517Z,67.40
2017-11-06T14:16:43.518Z,67.60
2017-11-06T14:21:45.281Z,69.50
2017-11-06T14:26:46.244Z,69.50
2017-11-06T14:31:48.049Z,70.00
2017-11-06T14:36:49.869Z,70.90
2017-11-06T14:41:51.743Z,69.70
2017-11-06T14:46:53.505Z,69.40
2017-11-06T14:51:54.515Z,69.50
2017-11-06T14:56:55.506Z,70.50
2017-11-06T15:01:56.480Z,69.60
2017-11-06T15:06:57.466Z,69.80
2017-11-06T15:11:58.469Z,70.30
2017-11-06T15:17:00.189Z,71.40
2017-11-06T15:22:01.157Z,71.50
2017-11-06T15:27:02.129Z,72.50
2017-11-06T15:32:03.461Z,73.10
2017-11-06T15:37:04.461Z,74.30
2017-11-06T15:42:05.528Z,76.00
2017-11-06T15:47:06.749Z,76.80
2017-11-06T15:52:08.517Z,79.80
2017-11-06T15:57:09.503Z,79.80
2017-11-06T16:02:10.505Z,99.90
2017-11-06T16:07:11.557Z,90.30
2017-11-06T16:12:12.659Z,99.90
2017-11-06T16:17:13.674Z,99.90
2017-11-06T16:22:15.669Z,99.90
2017-11-06T16:27:16.648Z,99.90
2017-11-06T16:32:17.622Z,99.90
2017-11-06T16:37:18.621Z,99.90
2017-11-06T16:42:19.605Z,99.90
2017-11-06T16:47:20.586Z,99.90
2017-11-06T16:52:21.569Z,99.90
2017-11-06T16:57:22.553Z,99.90
2017-11-06T17:02:23.678Z,99.90
2017-11-06T17:07:24.649Z,99.90
2017-11-06T17:12:25.747Z,99.90
2017-11-06T17:17:26.806Z,99.90
2017-11-06T17:22:28.538Z,99.90
2017-11-06T17:27:29.513Z,99.90
2017-11-06T17:32:30.545Z,99.90
2017-11-06T17:37:31.631Z,99.90
2017-11-06T17:42:34.706Z,99.90
2017-11-06T17:47:35.798Z,99.90
2017-11-06T17:52:36.881Z,99.90
2017-11-06T17:57:37.941Z,99.90
2017-11-06T18:02:38.955Z,99.90
2017-11-06T18:07:40.047Z,99.90
2017-11-06T18:12:41.683Z,99.90
2017-11-06T18:17:42.694Z,99.90
2017-11-06T18:22:44.513Z,99.90
2017-11-06T18:27:45.573Z,99.90
2017-11-06T18:32:47.310Z,99.90
2017-11-06T18:37:48.281Z,99.90
2017-11-06T18:42:49.978Z,99.90
2017-11-06T18:47:51.039Z,99.90
2017-11-06T18:52:52.830Z,99.90
2017-11-06T18:57:55.083Z,99.90
2017-11-06T19:02:56.257Z,99.90
2017-11-06T19:07:57.333Z,99.90
2017-11-06T19:12:58.326Z,99.90
2017-11-06T19:17:59.334Z,99.90
2017-11-06T19:23:00.402Z,99.90
2017-11-06T19:28:01.386Z,99.90
2017-11-06T19:33:03.532Z,99.90
2017-11-06T19:38:04.522Z,99.90
2017-11-06T19:43:05.562Z,99.90
2017-11-06T19:48:06.633Z,99.90
2017-11-06T19:53:07.715Z,99.90
2017-11-06T19:58:08.724Z,99.90
2017-11-06T20:03:09.834Z,99.90
2017-11-06T20:08:11.875Z,99.90
2017-11-06T20:13:12.925Z,99.90
2017-11-06T20:18:14.075Z,99.90
2017-11-06T20:23:15.077Z,99.90
2017-11-06T20:28:16.098Z,99.90
2017-11-06T20:33:17.892Z,99.90
2017-11-06T20:38:18.870Z,99.90
2017-11-06T20:43:20.626Z,99.90
2017-11-06T20:48:21.609Z,99.90
2017-11-06T20:53:22.590Z,99.90
2017-11-06T20:58:23.629Z,99.90
2017-11-06T21:03:25.381Z,99.90
2017-11-06T21:08:26.381Z,99.90
2017-11-06T21:13:27.366Z,99.90
2017-11-06T21:18:28.583Z,99.90
2017-11-06T21:23:29.660Z,99.90
2017-11-06T21:28:30.717Z,99.90
2017-11-06T21:33:31.697Z,99.90
2017-11-06T21:38:32.665Z,99.90
2017-11-06T21:43:33.665Z,99.90
2017-11-06T21:48:34.649Z,99.90
2017-11-06T21:53:35.674Z,99.90
2017-11-06T21:58:36.729Z,99.90
2017-11-06T22:03:37.910Z,99.90
2017-11-06T22:08:39.670Z,99.90
2017-11-06T22:13:40.668Z,99.90
2017-11-06T22:18:41.657Z,99.90
2017-11-06T22:23:42.634Z,99.90
2017-11-06T22:28:43.625Z,99.90
2017-11-06T22:33:44.591Z,99.90
2017-11-06T22:38:45.565Z,99.90
2017-11-06T22:43:46.558Z,99.90
2017-11-06T22:48:47.542Z,99.90
2017-11-06T22:53:48.518Z,99.90
2017-11-06T22:58:49.529Z,99.90
2017-11-06T23:03:50.522Z,99.90
2017-11-06T23:08:51.480Z,99.90
2017-11-06T23:13:52.453Z,99.90
2017-11-06T23:18:53.501Z,99.90
2017-11-06T23:23:54.773Z,99.90
2017-11-06T23:28:55.842Z,99.90
2017-11-06T23:33:56.877Z,99.90
2017-11-06T23:38:58.028Z,99.90
2017-11-06T23:43:59.734Z,99.90
2017-11-06T23:49:01.453Z,99.90
2017-11-06T23:54:14.657Z,99.90
2017-11-06T23:59:15.633Z,99.90
